sensor_id;sensor_type;location;lat;lon;timestamp;P1;durP1;ratioP1;P2;durP2;ratioP2
68178;SDS011;54998;42.656;23.382;2022-07-09T00:01:00;14.77;;;9.35;;
68178;SDS011;54998;42.656;23.382;2022-07-09T00:03:26;12.57;;;8.95;;
68178;SDS011;54998;42.656;23.382;2022-07-09T00:05:51;13.73;;;9.23;;
68178;SDS011;54998;42.656;23.382;2022-07-09T00:08:17;13.77;;;9.27;;
68178;SDS011;54998;42.656;23.382;2022-07-09T00:10:42;14.52;;;9.75;;
68178;SDS011;54998;42.656;23.382;2022-07-09T00:13:08;15.23;;;9.18;;
68178;SDS011;54998;42.656;23.382;2022-07-09T00:15:33;15.50;;;9.48;;
68178;SDS011;54998;42.656;23.382;2022-07-09T00:38:40;17.27;;;10.77;;
68178;SDS011;54998;42.656;23.382;2022-07-09T00:41:05;18.17;;;11.63;;
68178;SDS011;54998;42.656;23.382;2022-07-09T00:43:31;15.73;;;10.32;;
68178;SDS011;54998;42.656;23.382;2022-07-09T00:45:56;14.25;;;9.55;;
68178;SDS011;54998;42.656;23.382;2022-07-09T00:48:22;15.23;;;9.40;;
68178;SDS011;54998;42.656;23.382;2022-07-09T00:50:47;13.25;;;8.07;;
68178;SDS011;54998;42.656;23.382;2022-07-09T00:53:14;13.25;;;9.20;;
68178;SDS011;54998;42.656;23.382;2022-07-09T00:55:41;13.93;;;8.90;;
68178;SDS011;54998;42.656;23.382;2022-07-09T00:58:10;13.02;;;8.40;;
68178;SDS011;54998;42.656;23.382;2022-07-09T01:00:36;11.75;;;7.80;;
68178;SDS011;54998;42.656;23.382;2022-07-09T01:03:02;10.88;;;6.85;;
68178;SDS011;54998;42.656;23.382;2022-07-09T01:05:28;11.98;;;7.15;;
68178;SDS011;54998;42.656;23.382;2022-07-09T01:08:00;10.48;;;7.13;;
68178;SDS011;54998;42.656;23.382;2022-07-09T01:10:26;10.38;;;7.85;;
68178;SDS011;54998;42.656;23.382;2022-07-09T01:12:51;8.55;;;6.28;;
68178;SDS011;54998;42.656;23.382;2022-07-09T01:15:16;11.30;;;7.35;;
68178;SDS011;54998;42.656;23.382;2022-07-09T01:17:42;9.10;;;6.65;;
68178;SDS011;54998;42.656;23.382;2022-07-09T01:20:08;12.18;;;7.28;;
68178;SDS011;54998;42.656;23.382;2022-07-09T01:22:34;9.70;;;6.25;;
68178;SDS011;54998;42.656;23.382;2022-07-09T01:25:00;10.02;;;6.30;;
68178;SDS011;54998;42.656;23.382;2022-07-09T01:27:26;9.13;;;6.20;;
68178;SDS011;54998;42.656;23.382;2022-07-09T01:29:52;8.27;;;6.30;;
68178;SDS011;54998;42.656;23.382;2022-07-09T01:32:17;6.97;;;5.28;;
68178;SDS011;54998;42.656;23.382;2022-07-09T01:34:44;8.82;;;6.00;;
68178;SDS011;54998;42.656;23.382;2022-07-09T01:37:09;8.70;;;5.80;;
68178;SDS011;54998;42.656;23.382;2022-07-09T01:39:35;8.88;;;6.38;;
68178;SDS011;54998;42.656;23.382;2022-07-09T01:42:00;6.63;;;4.18;;
68178;SDS011;54998;42.656;23.382;2022-07-09T01:44:26;8.02;;;5.72;;
68178;SDS011;54998;42.656;23.382;2022-07-09T01:46:51;10.13;;;5.68;;
68178;SDS011;54998;42.656;23.382;2022-07-09T01:49:17;8.32;;;5.80;;
68178;SDS011;54998;42.656;23.382;2022-07-09T01:51:42;7.63;;;5.47;;
68178;SDS011;54998;42.656;23.382;2022-07-09T01:54:08;6.75;;;5.45;;
68178;SDS011;54998;42.656;23.382;2022-07-09T01:56:33;7.30;;;5.68;;
68178;SDS011;54998;42.656;23.382;2022-07-09T01:59:00;8.55;;;5.40;;
68178;SDS011;54998;42.656;23.382;2022-07-09T02:01:25;7.57;;;5.45;;
68178;SDS011;54998;42.656;23.382;2022-07-09T02:03:51;9.00;;;6.32;;
68178;SDS011;54998;42.656;23.382;2022-07-09T02:11:27;8.18;;;5.32;;
68178;SDS011;54998;42.656;23.382;2022-07-09T02:13:52;8.18;;;5.18;;
68178;SDS011;54998;42.656;23.382;2022-07-09T02:16:18;6.57;;;4.43;;
68178;SDS011;54998;42.656;23.382;2022-07-09T02:18:43;6.10;;;4.70;;
68178;SDS011;54998;42.656;23.382;2022-07-09T02:21:09;7.47;;;5.18;;
68178;SDS011;54998;42.656;23.382;2022-07-09T02:23:34;7.70;;;4.80;;
68178;SDS011;54998;42.656;23.382;2022-07-09T02:26:00;6.25;;;4.53;;
68178;SDS011;54998;42.656;23.382;2022-07-09T02:28:25;6.45;;;4.63;;
68178;SDS011;54998;42.656;23.382;2022-07-09T02:30:51;5.93;;;4.60;;
68178;SDS011;54998;42.656;23.382;2022-07-09T02:33:16;6.45;;;4.78;;
68178;SDS011;54998;42.656;23.382;2022-07-09T02:35:42;6.50;;;5.03;;
68178;SDS011;54998;42.656;23.382;2022-07-09T02:38:08;6.00;;;4.82;;
68178;SDS011;54998;42.656;23.382;2022-07-09T02:40:33;5.63;;;3.92;;
68178;SDS011;54998;42.656;23.382;2022-07-09T02:42:59;5.75;;;4.18;;
68178;SDS011;54998;42.656;23.382;2022-07-09T02:45:24;4.93;;;3.40;;
68178;SDS011;54998;42.656;23.382;2022-07-09T02:47:50;5.75;;;4.45;;
68178;SDS011;54998;42.656;23.382;2022-07-09T02:50:15;6.60;;;4.18;;
68178;SDS011;54998;42.656;23.382;2022-07-09T02:52:41;7.22;;;4.75;;
68178;SDS011;54998;42.656;23.382;2022-07-09T02:55:06;5.72;;;4.65;;
68178;SDS011;54998;42.656;23.382;2022-07-09T02:57:32;6.35;;;4.43;;
68178;SDS011;54998;42.656;23.382;2022-07-09T02:59:57;5.63;;;4.28;;
68178;SDS011;54998;42.656;23.382;2022-07-09T03:02:24;6.25;;;4.38;;
68178;SDS011;54998;42.656;23.382;2022-07-09T03:04:49;6.40;;;4.55;;
68178;SDS011;54998;42.656;23.382;2022-07-09T03:07:16;6.47;;;4.03;;
68178;SDS011;54998;42.656;23.382;2022-07-09T03:09:42;6.20;;;4.57;;
68178;SDS011;54998;42.656;23.382;2022-07-09T03:12:07;5.88;;;4.50;;
68178;SDS011;54998;42.656;23.382;2022-07-09T03:14:33;6.35;;;4.38;;
68178;SDS011;54998;42.656;23.382;2022-07-09T03:16:58;6.03;;;4.40;;
68178;SDS011;54998;42.656;23.382;2022-07-09T03:19:24;5.95;;;4.13;;
68178;SDS011;54998;42.656;23.382;2022-07-09T03:21:49;5.95;;;4.13;;
68178;SDS011;54998;42.656;23.382;2022-07-09T03:24:15;5.95;;;4.78;;
68178;SDS011;54998;42.656;23.382;2022-07-09T03:26:40;5.38;;;4.60;;
68178;SDS011;54998;42.656;23.382;2022-07-09T03:29:06;7.70;;;4.18;;
68178;SDS011;54998;42.656;23.382;2022-07-09T03:31:33;5.05;;;3.80;;
68178;SDS011;54998;42.656;23.382;2022-07-09T03:33:59;6.18;;;4.55;;
68178;SDS011;54998;42.656;23.382;2022-07-09T03:36:25;5.60;;;4.20;;
68178;SDS011;54998;42.656;23.382;2022-07-09T03:38:50;5.32;;;4.13;;
68178;SDS011;54998;42.656;23.382;2022-07-09T03:41:15;5.72;;;4.47;;
68178;SDS011;54998;42.656;23.382;2022-07-09T03:43:41;6.20;;;4.70;;
68178;SDS011;54998;42.656;23.382;2022-07-09T03:46:06;6.38;;;4.30;;
68178;SDS011;54998;42.656;23.382;2022-07-09T03:48:32;5.57;;;4.13;;
68178;SDS011;54998;42.656;23.382;2022-07-09T03:50:58;6.80;;;4.38;;
68178;SDS011;54998;42.656;23.382;2022-07-09T03:53:23;7.78;;;4.63;;
68178;SDS011;54998;42.656;23.382;2022-07-09T03:55:49;5.35;;;4.10;;
68178;SDS011;54998;42.656;23.382;2022-07-09T03:58:14;6.07;;;4.45;;
68178;SDS011;54998;42.656;23.382;2022-07-09T04:00:40;6.53;;;4.20;;
68178;SDS011;54998;42.656;23.382;2022-07-09T04:03:05;5.20;;;3.70;;
68178;SDS011;54998;42.656;23.382;2022-07-09T04:05:31;5.30;;;3.72;;
68178;SDS011;54998;42.656;23.382;2022-07-09T04:07:56;6.18;;;4.43;;
68178;SDS011;54998;42.656;23.382;2022-07-09T04:10:22;5.18;;;3.55;;
68178;SDS011;54998;42.656;23.382;2022-07-09T04:12:47;6.13;;;4.25;;
68178;SDS011;54998;42.656;23.382;2022-07-09T04:15:13;6.15;;;4.45;;
68178;SDS011;54998;42.656;23.382;2022-07-09T04:17:38;6.10;;;4.63;;
68178;SDS011;54998;42.656;23.382;2022-07-09T04:20:04;8.13;;;4.75;;
68178;SDS011;54998;42.656;23.382;2022-07-09T04:22:30;6.03;;;4.68;;
68178;SDS011;54998;42.656;23.382;2022-07-09T04:24:55;6.43;;;4.25;;
68178;SDS011;54998;42.656;23.382;2022-07-09T04:27:21;5.60;;;4.30;;
68178;SDS011;54998;42.656;23.382;2022-07-09T04:29:46;6.85;;;4.57;;
68178;SDS011;54998;42.656;23.382;2022-07-09T04:32:12;6.75;;;4.95;;
68178;SDS011;54998;42.656;23.382;2022-07-09T04:34:38;7.13;;;4.93;;
68178;SDS011;54998;42.656;23.382;2022-07-09T04:37:03;7.00;;;5.22;;
68178;SDS011;54998;42.656;23.382;2022-07-09T04:39:29;7.20;;;5.25;;
68178;SDS011;54998;42.656;23.382;2022-07-09T04:41:54;7.30;;;5.30;;
68178;SDS011;54998;42.656;23.382;2022-07-09T04:44:20;7.65;;;4.80;;
68178;SDS011;54998;42.656;23.382;2022-07-09T04:46:45;8.77;;;4.85;;
68178;SDS011;54998;42.656;23.382;2022-07-09T04:49:11;5.93;;;5.20;;
68178;SDS011;54998;42.656;23.382;2022-07-09T04:51:36;7.07;;;5.28;;
68178;SDS011;54998;42.656;23.382;2022-07-09T04:54:02;6.57;;;4.80;;
68178;SDS011;54998;42.656;23.382;2022-07-09T04:56:27;7.25;;;5.38;;
68178;SDS011;54998;42.656;23.382;2022-07-09T04:58:53;6.60;;;5.55;;
68178;SDS011;54998;42.656;23.382;2022-07-09T05:01:19;7.30;;;4.80;;
68178;SDS011;54998;42.656;23.382;2022-07-09T05:03:48;6.72;;;4.85;;
68178;SDS011;54998;42.656;23.382;2022-07-09T05:06:17;7.78;;;5.68;;
68178;SDS011;54998;42.656;23.382;2022-07-09T05:08:43;6.45;;;5.05;;
68178;SDS011;54998;42.656;23.382;2022-07-09T05:11:09;6.25;;;4.57;;
68178;SDS011;54998;42.656;23.382;2022-07-09T05:13:35;6.53;;;5.63;;
68178;SDS011;54998;42.656;23.382;2022-07-09T05:18:27;5.32;;;3.75;;
68178;SDS011;54998;42.656;23.382;2022-07-09T05:20:54;6.75;;;5.10;;
68178;SDS011;54998;42.656;23.382;2022-07-09T05:23:19;7.70;;;5.07;;
68178;SDS011;54998;42.656;23.382;2022-07-09T05:25:45;7.15;;;4.78;;
68178;SDS011;54998;42.656;23.382;2022-07-09T05:28:10;7.90;;;6.10;;
68178;SDS011;54998;42.656;23.382;2022-07-09T05:30:36;8.40;;;5.35;;
68178;SDS011;54998;42.656;23.382;2022-07-09T05:33:03;7.10;;;4.78;;
68178;SDS011;54998;42.656;23.382;2022-07-09T05:35:29;7.20;;;4.82;;
68178;SDS011;54998;42.656;23.382;2022-07-09T05:37:55;7.55;;;5.85;;
68178;SDS011;54998;42.656;23.382;2022-07-09T05:40:20;6.40;;;4.43;;
68178;SDS011;54998;42.656;23.382;2022-07-09T05:42:46;7.07;;;4.57;;
68178;SDS011;54998;42.656;23.382;2022-07-09T05:45:11;6.78;;;5.07;;
68178;SDS011;54998;42.656;23.382;2022-07-09T05:47:37;6.32;;;4.97;;
68178;SDS011;54998;42.656;23.382;2022-07-09T05:50:03;5.93;;;4.38;;
68178;SDS011;54998;42.656;23.382;2022-07-09T05:52:29;5.80;;;4.50;;
68178;SDS011;54998;42.656;23.382;2022-07-09T05:54:54;6.05;;;5.05;;
68178;SDS011;54998;42.656;23.382;2022-07-09T05:57:20;5.72;;;4.28;;
68178;SDS011;54998;42.656;23.382;2022-07-09T05:59:46;4.43;;;3.58;;
68178;SDS011;54998;42.656;23.382;2022-07-09T06:02:11;5.32;;;4.00;;
68178;SDS011;54998;42.656;23.382;2022-07-09T06:04:37;4.07;;;3.50;;
68178;SDS011;54998;42.656;23.382;2022-07-09T06:07:02;6.45;;;3.63;;
68178;SDS011;54998;42.656;23.382;2022-07-09T06:09:28;4.75;;;3.22;;
68178;SDS011;54998;42.656;23.382;2022-07-09T06:11:54;5.05;;;3.30;;
68178;SDS011;54998;42.656;23.382;2022-07-09T06:40:18;6.47;;;3.88;;
68178;SDS011;54998;42.656;23.382;2022-07-09T06:42:43;7.10;;;4.70;;
68178;SDS011;54998;42.656;23.382;2022-07-09T06:45:09;6.18;;;3.63;;
68178;SDS011;54998;42.656;23.382;2022-07-09T06:47:35;5.78;;;4.60;;
68178;SDS011;54998;42.656;23.382;2022-07-09T06:50:01;7.47;;;3.63;;
68178;SDS011;54998;42.656;23.382;2022-07-09T06:52:27;7.07;;;4.20;;
68178;SDS011;54998;42.656;23.382;2022-07-09T06:54:52;5.82;;;3.88;;
68178;SDS011;54998;42.656;23.382;2022-07-09T06:57:18;6.57;;;3.83;;
68178;SDS011;54998;42.656;23.382;2022-07-09T06:59:44;5.45;;;3.83;;
68178;SDS011;54998;42.656;23.382;2022-07-09T07:02:13;6.30;;;3.63;;
68178;SDS011;54998;42.656;23.382;2022-07-09T07:04:40;6.85;;;4.80;;
68178;SDS011;54998;42.656;23.382;2022-07-09T07:07:06;6.32;;;3.72;;
68178;SDS011;54998;42.656;23.382;2022-07-09T07:09:31;4.07;;;3.42;;
68178;SDS011;54998;42.656;23.382;2022-07-09T07:11:57;5.95;;;4.20;;
68178;SDS011;54998;42.656;23.382;2022-07-09T07:14:22;4.60;;;3.42;;
68178;SDS011;54998;42.656;23.382;2022-07-09T07:16:48;4.55;;;3.50;;
68178;SDS011;54998;42.656;23.382;2022-07-09T07:37:13;4.57;;;3.55;;
68178;SDS011;54998;42.656;23.382;2022-07-09T07:39:39;4.90;;;3.85;;
68178;SDS011;54998;42.656;23.382;2022-07-09T07:42:04;8.05;;;3.97;;
68178;SDS011;54998;42.656;23.382;2022-07-09T07:44:32;6.68;;;3.65;;
68178;SDS011;54998;42.656;23.382;2022-07-09T07:46:57;8.45;;;3.72;;
68178;SDS011;54998;42.656;23.382;2022-07-09T07:49:23;5.78;;;4.18;;
68178;SDS011;54998;42.656;23.382;2022-07-09T07:51:48;5.22;;;3.70;;
68178;SDS011;54998;42.656;23.382;2022-07-09T07:54:14;6.80;;;4.47;;
68178;SDS011;54998;42.656;23.382;2022-07-09T07:56:39;5.35;;;3.63;;
68178;SDS011;54998;42.656;23.382;2022-07-09T07:59:05;6.65;;;4.78;;
68178;SDS011;54998;42.656;23.382;2022-07-09T08:01:30;7.00;;;5.72;;
68178;SDS011;54998;42.656;23.382;2022-07-09T08:11:41;6.80;;;3.63;;
68178;SDS011;54998;42.656;23.382;2022-07-09T08:14:07;8.75;;;5.10;;
68178;SDS011;54998;42.656;23.382;2022-07-09T08:16:34;4.88;;;3.80;;
68178;SDS011;54998;42.656;23.382;2022-07-09T08:18:59;5.00;;;4.32;;
68178;SDS011;54998;42.656;23.382;2022-07-09T08:21:25;4.72;;;3.80;;
68178;SDS011;54998;42.656;23.382;2022-07-09T08:23:50;5.10;;;3.97;;
68178;SDS011;54998;42.656;23.382;2022-07-09T08:26:25;4.65;;;3.63;;
68178;SDS011;54998;42.656;23.382;2022-07-09T08:28:52;5.70;;;3.88;;
68178;SDS011;54998;42.656;23.382;2022-07-09T08:31:18;5.18;;;4.38;;
68178;SDS011;54998;42.656;23.382;2022-07-09T08:33:45;6.00;;;3.70;;
68178;SDS011;54998;42.656;23.382;2022-07-09T08:36:11;6.07;;;4.22;;
68178;SDS011;54998;42.656;23.382;2022-07-09T08:38:36;5.50;;;4.20;;
68178;SDS011;54998;42.656;23.382;2022-07-09T08:41:03;4.72;;;4.03;;
68178;SDS011;54998;42.656;23.382;2022-07-09T08:43:31;4.40;;;3.70;;
68178;SDS011;54998;42.656;23.382;2022-07-09T08:45:58;6.18;;;4.20;;
68178;SDS011;54998;42.656;23.382;2022-07-09T09:11:40;4.82;;;3.92;;
68178;SDS011;54998;42.656;23.382;2022-07-09T09:14:06;5.45;;;4.32;;
68178;SDS011;54998;42.656;23.382;2022-07-09T09:16:31;5.07;;;4.43;;
68178;SDS011;54998;42.656;23.382;2022-07-09T09:55:19;6.82;;;5.40;;
68178;SDS011;54998;42.656;23.382;2022-07-09T09:57:45;6.40;;;4.45;;
68178;SDS011;54998;42.656;23.382;2022-07-09T10:00:12;5.05;;;4.43;;
68178;SDS011;54998;42.656;23.382;2022-07-09T10:02:38;4.88;;;4.15;;
68178;SDS011;54998;42.656;23.382;2022-07-09T10:05:08;6.00;;;5.13;;
68178;SDS011;54998;42.656;23.382;2022-07-09T10:07:34;6.35;;;4.65;;
68178;SDS011;54998;42.656;23.382;2022-07-09T10:10:00;5.68;;;4.97;;
68178;SDS011;54998;42.656;23.382;2022-07-09T10:12:43;4.85;;;4.35;;
68178;SDS011;54998;42.656;23.382;2022-07-09T10:15:25;7.22;;;4.80;;
68178;SDS011;54998;42.656;23.382;2022-07-09T10:17:51;5.28;;;4.78;;
68178;SDS011;54998;42.656;23.382;2022-07-09T10:22:55;5.65;;;3.88;;
68178;SDS011;54998;42.656;23.382;2022-07-09T10:25:31;5.00;;;4.00;;
68178;SDS011;54998;42.656;23.382;2022-07-09T10:28:17;4.90;;;4.40;;
68178;SDS011;54998;42.656;23.382;2022-07-09T10:30:44;5.78;;;4.28;;
68178;SDS011;54998;42.656;23.382;2022-07-09T10:33:11;5.68;;;4.78;;
68178;SDS011;54998;42.656;23.382;2022-07-09T10:35:42;5.28;;;4.78;;
68178;SDS011;54998;42.656;23.382;2022-07-09T10:38:11;6.95;;;5.03;;
68178;SDS011;54998;42.656;23.382;2022-07-09T10:40:38;6.75;;;5.15;;
68178;SDS011;54998;42.656;23.382;2022-07-09T10:45:39;5.70;;;3.78;;
68178;SDS011;54998;42.656;23.382;2022-07-09T10:48:10;7.20;;;4.13;;
68178;SDS011;54998;42.656;23.382;2022-07-09T10:50:37;4.70;;;4.07;;
68178;SDS011;54998;42.656;23.382;2022-07-09T10:53:04;4.72;;;3.75;;
68178;SDS011;54998;42.656;23.382;2022-07-09T10:55:30;5.75;;;3.67;;
68178;SDS011;54998;42.656;23.382;2022-07-09T10:57:56;4.10;;;3.05;;
68178;SDS011;54998;42.656;23.382;2022-07-09T11:00:23;4.20;;;2.88;;
68178;SDS011;54998;42.656;23.382;2022-07-09T11:02:54;3.30;;;2.35;;
68178;SDS011;54998;42.656;23.382;2022-07-09T11:05:21;3.10;;;2.20;;
68178;SDS011;54998;42.656;23.382;2022-07-09T11:10:26;7.47;;;3.20;;
68178;SDS011;54998;42.656;23.382;2022-07-09T11:12:53;3.78;;;2.40;;
68178;SDS011;54998;42.656;23.382;2022-07-09T11:15:30;3.72;;;2.85;;
68178;SDS011;54998;42.656;23.382;2022-07-09T11:17:59;3.45;;;2.63;;
68178;SDS011;54998;42.656;23.382;2022-07-09T11:23:04;3.45;;;3.15;;
68178;SDS011;54998;42.656;23.382;2022-07-09T11:25:30;2.67;;;2.28;;
68178;SDS011;54998;42.656;23.382;2022-07-09T11:27:56;3.47;;;2.50;;
68178;SDS011;54998;42.656;23.382;2022-07-09T11:30:23;3.95;;;2.67;;
68178;SDS011;54998;42.656;23.382;2022-07-09T11:35:24;3.85;;;2.58;;
68178;SDS011;54998;42.656;23.382;2022-07-09T11:37:52;4.40;;;3.08;;
68178;SDS011;54998;42.656;23.382;2022-07-09T11:40:17;3.08;;;2.15;;
68178;SDS011;54998;42.656;23.382;2022-07-09T11:42:44;3.38;;;2.13;;
68178;SDS011;54998;42.656;23.382;2022-07-09T11:45:10;3.47;;;2.30;;
68178;SDS011;54998;42.656;23.382;2022-07-09T11:47:37;3.10;;;2.20;;
68178;SDS011;54998;42.656;23.382;2022-07-09T11:50:11;2.88;;;2.15;;
68178;SDS011;54998;42.656;23.382;2022-07-09T11:52:47;3.13;;;2.10;;
68178;SDS011;54998;42.656;23.382;2022-07-09T11:55:18;3.25;;;1.80;;
68178;SDS011;54998;42.656;23.382;2022-07-09T11:57:55;3.78;;;1.83;;
68178;SDS011;54998;42.656;23.382;2022-07-09T12:00:25;2.90;;;2.08;;
68178;SDS011;54998;42.656;23.382;2022-07-09T12:02:53;3.63;;;2.22;;
68178;SDS011;54998;42.656;23.382;2022-07-09T12:05:29;3.72;;;2.13;;
68178;SDS011;54998;42.656;23.382;2022-07-09T12:07:56;6.93;;;5.07;;
68178;SDS011;54998;42.656;23.382;2022-07-09T12:12:54;3.10;;;2.33;;
68178;SDS011;54998;42.656;23.382;2022-07-09T12:15:19;3.15;;;2.03;;
68178;SDS011;54998;42.656;23.382;2022-07-09T12:17:45;2.13;;;1.67;;
68178;SDS011;54998;42.656;23.382;2022-07-09T12:20:16;3.40;;;2.40;;
68178;SDS011;54998;42.656;23.382;2022-07-09T12:22:41;3.13;;;1.92;;
68178;SDS011;54998;42.656;23.382;2022-07-09T12:25:07;2.90;;;2.30;;
68178;SDS011;54998;42.656;23.382;2022-07-09T12:27:33;3.20;;;2.35;;
68178;SDS011;54998;42.656;23.382;2022-07-09T12:29:58;2.70;;;1.90;;
68178;SDS011;54998;42.656;23.382;2022-07-09T12:32:24;3.28;;;2.50;;
68178;SDS011;54998;42.656;23.382;2022-07-09T12:34:49;3.70;;;1.90;;
68178;SDS011;54998;42.656;23.382;2022-07-09T12:37:14;2.33;;;1.92;;
68178;SDS011;54998;42.656;23.382;2022-07-09T12:39:40;5.15;;;2.67;;
68178;SDS011;54998;42.656;23.382;2022-07-09T12:42:05;4.82;;;2.85;;
68178;SDS011;54998;42.656;23.382;2022-07-09T12:44:31;2.75;;;2.03;;
68178;SDS011;54998;42.656;23.382;2022-07-09T12:46:56;3.40;;;1.98;;
68178;SDS011;54998;42.656;23.382;2022-07-09T12:49:24;2.42;;;2.05;;
68178;SDS011;54998;42.656;23.382;2022-07-09T12:52:07;3.45;;;2.72;;
68178;SDS011;54998;42.656;23.382;2022-07-09T12:54:33;3.92;;;1.92;;
68178;SDS011;54998;42.656;23.382;2022-07-09T12:56:58;3.90;;;2.55;;
68178;SDS011;54998;42.656;23.382;2022-07-09T12:59:24;4.25;;;2.40;;
68178;SDS011;54998;42.656;23.382;2022-07-09T13:01:50;2.50;;;1.83;;
68178;SDS011;54998;42.656;23.382;2022-07-09T13:04:15;3.20;;;2.33;;
68178;SDS011;54998;42.656;23.382;2022-07-09T13:06:41;3.38;;;2.20;;
68178;SDS011;54998;42.656;23.382;2022-07-09T13:09:07;2.88;;;1.70;;
68178;SDS011;54998;42.656;23.382;2022-07-09T13:11:37;2.75;;;2.28;;
68178;SDS011;54998;42.656;23.382;2022-07-09T13:14:03;5.15;;;3.10;;
68178;SDS011;54998;42.656;23.382;2022-07-09T13:16:29;5.20;;;2.90;;
68178;SDS011;54998;42.656;23.382;2022-07-09T13:18:55;2.22;;;1.60;;
68178;SDS011;54998;42.656;23.382;2022-07-09T13:21:20;3.33;;;2.00;;
68178;SDS011;54998;42.656;23.382;2022-07-09T13:23:47;4.13;;;2.40;;
68178;SDS011;54998;42.656;23.382;2022-07-09T13:26:14;4.03;;;2.95;;
68178;SDS011;54998;42.656;23.382;2022-07-09T13:28:39;2.85;;;2.55;;
68178;SDS011;54998;42.656;23.382;2022-07-09T13:31:05;3.13;;;2.05;;
68178;SDS011;54998;42.656;23.382;2022-07-09T13:33:31;5.18;;;3.45;;
68178;SDS011;54998;42.656;23.382;2022-07-09T13:35:57;2.83;;;1.73;;
68178;SDS011;54998;42.656;23.382;2022-07-09T13:38:23;3.42;;;2.30;;
68178;SDS011;54998;42.656;23.382;2022-07-09T13:40:49;3.10;;;2.30;;
68178;SDS011;54998;42.656;23.382;2022-07-09T13:43:14;3.85;;;2.33;;
68178;SDS011;54998;42.656;23.382;2022-07-09T13:45:40;2.95;;;1.85;;
68178;SDS011;54998;42.656;23.382;2022-07-09T13:48:05;5.63;;;2.38;;
68178;SDS011;54998;42.656;23.382;2022-07-09T13:50:31;3.00;;;2.17;;
68178;SDS011;54998;42.656;23.382;2022-07-09T13:52:56;2.35;;;1.92;;
68178;SDS011;54998;42.656;23.382;2022-07-09T13:55:22;2.80;;;2.22;;
68178;SDS011;54998;42.656;23.382;2022-07-09T13:57:47;2.38;;;1.77;;
68178;SDS011;54998;42.656;23.382;2022-07-09T14:00:12;3.38;;;2.70;;
68178;SDS011;54998;42.656;23.382;2022-07-09T14:02:38;2.60;;;2.22;;
68178;SDS011;54998;42.656;23.382;2022-07-09T14:05:04;3.78;;;2.40;;
68178;SDS011;54998;42.656;23.382;2022-07-09T14:07:31;3.08;;;2.45;;
68178;SDS011;54998;42.656;23.382;2022-07-09T14:09:57;3.95;;;3.50;;
68178;SDS011;54998;42.656;23.382;2022-07-09T14:12:23;1.92;;;1.73;;
68178;SDS011;54998;42.656;23.382;2022-07-09T14:14:49;3.97;;;2.53;;
68178;SDS011;54998;42.656;23.382;2022-07-09T14:17:15;3.25;;;2.33;;
68178;SDS011;54998;42.656;23.382;2022-07-09T14:19:40;5.32;;;2.90;;
68178;SDS011;54998;42.656;23.382;2022-07-09T14:22:06;3.42;;;2.30;;
68178;SDS011;54998;42.656;23.382;2022-07-09T14:24:32;2.72;;;2.25;;
68178;SDS011;54998;42.656;23.382;2022-07-09T14:26:57;5.05;;;2.17;;
68178;SDS011;54998;42.656;23.382;2022-07-09T14:29:22;4.90;;;2.95;;
68178;SDS011;54998;42.656;23.382;2022-07-09T14:31:48;3.95;;;3.03;;
68178;SDS011;54998;42.656;23.382;2022-07-09T14:34:13;5.15;;;2.83;;
68178;SDS011;54998;42.656;23.382;2022-07-09T14:36:39;2.75;;;2.15;;
68178;SDS011;54998;42.656;23.382;2022-07-09T14:39:04;3.55;;;2.78;;
68178;SDS011;54998;42.656;23.382;2022-07-09T14:41:30;4.05;;;2.50;;
68178;SDS011;54998;42.656;23.382;2022-07-09T14:43:55;3.50;;;2.67;;
68178;SDS011;54998;42.656;23.382;2022-07-09T14:46:21;3.38;;;2.50;;
68178;SDS011;54998;42.656;23.382;2022-07-09T14:48:46;4.75;;;2.15;;
68178;SDS011;54998;42.656;23.382;2022-07-09T14:51:12;3.38;;;2.60;;
68178;SDS011;54998;42.656;23.382;2022-07-09T14:53:38;6.68;;;3.28;;
68178;SDS011;54998;42.656;23.382;2022-07-09T14:56:03;4.15;;;2.70;;
68178;SDS011;54998;42.656;23.382;2022-07-09T14:58:29;3.28;;;2.70;;
68178;SDS011;54998;42.656;23.382;2022-07-09T15:00:56;4.15;;;2.55;;
68178;SDS011;54998;42.656;23.382;2022-07-09T15:03:22;4.13;;;2.67;;
68178;SDS011;54998;42.656;23.382;2022-07-09T15:05:48;2.97;;;2.42;;
68178;SDS011;54998;42.656;23.382;2022-07-09T15:08:13;4.95;;;2.55;;
68178;SDS011;54998;42.656;23.382;2022-07-09T15:10:39;4.63;;;2.58;;
68178;SDS011;54998;42.656;23.382;2022-07-09T15:13:05;2.58;;;2.17;;
68178;SDS011;54998;42.656;23.382;2022-07-09T15:15:31;3.40;;;2.67;;
68178;SDS011;54998;42.656;23.382;2022-07-09T15:17:58;3.97;;;3.47;;
68178;SDS011;54998;42.656;23.382;2022-07-09T15:20:24;5.18;;;2.97;;
68178;SDS011;54998;42.656;23.382;2022-07-09T15:22:49;4.47;;;3.60;;
68178;SDS011;54998;42.656;23.382;2022-07-09T15:25:15;4.95;;;3.75;;
68178;SDS011;54998;42.656;23.382;2022-07-09T15:27:40;4.40;;;2.83;;
68178;SDS011;54998;42.656;23.382;2022-07-09T15:30:06;3.67;;;3.10;;
68178;SDS011;54998;42.656;23.382;2022-07-09T15:32:32;3.72;;;2.55;;
68178;SDS011;54998;42.656;23.382;2022-07-09T15:34:58;5.28;;;3.30;;
68178;SDS011;54998;42.656;23.382;2022-07-09T15:37:23;4.30;;;2.60;;
68178;SDS011;54998;42.656;23.382;2022-07-09T15:39:49;4.50;;;3.00;;
68178;SDS011;54998;42.656;23.382;2022-07-09T15:42:15;5.45;;;2.90;;
68178;SDS011;54998;42.656;23.382;2022-07-09T15:44:40;5.05;;;2.50;;
68178;SDS011;54998;42.656;23.382;2022-07-09T15:47:06;5.20;;;3.90;;
68178;SDS011;54998;42.656;23.382;2022-07-09T15:49:31;4.32;;;3.22;;
68178;SDS011;54998;42.656;23.382;2022-07-09T15:51:57;6.60;;;3.90;;
68178;SDS011;54998;42.656;23.382;2022-07-09T15:54:22;6.35;;;2.83;;
68178;SDS011;54998;42.656;23.382;2022-07-09T15:56:49;4.45;;;3.03;;
68178;SDS011;54998;42.656;23.382;2022-07-09T15:59:15;3.85;;;3.20;;
68178;SDS011;54998;42.656;23.382;2022-07-09T16:01:42;4.72;;;2.85;;
68178;SDS011;54998;42.656;23.382;2022-07-09T16:04:08;5.97;;;2.90;;
68178;SDS011;54998;42.656;23.382;2022-07-09T16:06:33;4.03;;;3.45;;
68178;SDS011;54998;42.656;23.382;2022-07-09T16:08:59;4.85;;;2.92;;
68178;SDS011;54998;42.656;23.382;2022-07-09T16:11:25;3.97;;;3.10;;
68178;SDS011;54998;42.656;23.382;2022-07-09T16:14:09;4.50;;;2.97;;
68178;SDS011;54998;42.656;23.382;2022-07-09T16:16:35;4.97;;;3.35;;
68178;SDS011;54998;42.656;23.382;2022-07-09T16:19:00;6.57;;;3.50;;
68178;SDS011;54998;42.656;23.382;2022-07-09T16:21:26;5.07;;;3.65;;
68178;SDS011;54998;42.656;23.382;2022-07-09T16:23:51;4.45;;;3.17;;
68178;SDS011;54998;42.656;23.382;2022-07-09T16:26:17;4.10;;;3.53;;
68178;SDS011;54998;42.656;23.382;2022-07-09T16:28:43;6.30;;;3.30;;
68178;SDS011;54998;42.656;23.382;2022-07-09T16:31:08;3.80;;;3.33;;
68178;SDS011;54998;42.656;23.382;2022-07-09T16:33:33;5.07;;;3.53;;
68178;SDS011;54998;42.656;23.382;2022-07-09T16:35:59;6.60;;;3.58;;
68178;SDS011;54998;42.656;23.382;2022-07-09T16:38:24;4.32;;;3.50;;
68178;SDS011;54998;42.656;23.382;2022-07-09T16:40:50;4.65;;;3.72;;
68178;SDS011;54998;42.656;23.382;2022-07-09T16:43:15;4.72;;;3.70;;
68178;SDS011;54998;42.656;23.382;2022-07-09T16:45:40;4.57;;;3.70;;
68178;SDS011;54998;42.656;23.382;2022-07-09T16:48:06;5.63;;;4.55;;
68178;SDS011;54998;42.656;23.382;2022-07-09T16:50:32;5.22;;;3.38;;
68178;SDS011;54998;42.656;23.382;2022-07-09T16:52:57;4.25;;;3.55;;
68178;SDS011;54998;42.656;23.382;2022-07-09T16:55:23;4.60;;;3.92;;
68178;SDS011;54998;42.656;23.382;2022-07-09T16:57:48;4.72;;;3.38;;
68178;SDS011;54998;42.656;23.382;2022-07-09T17:02:41;6.40;;;4.15;;
68178;SDS011;54998;42.656;23.382;2022-07-09T17:05:07;6.35;;;3.83;;